Latest Weather Observations for Dwellingup

IDW60801

Issued at 12:33 pm WST Saturday 22 July 2017 (issued every 30 minutes, with the page automatically refreshed every 10 minutes)

About weather observations | Map of weather stations | Latest weather observations for WA | Other Formats
Station Details ID: 009538 Name: DWELLINGUP Lat: -32.71 Lon: 116.06 Height: 267.0 m
Data from the previous 72 hours. | See also: Recent months at Dwellingup
Date/Time
WST
Temp
°C
App
Temp
°C
Dew
Point
°C
Rel
Hum
%
Delta-T
°C
Wind Press
QNH
hPa
Press
MSL
hPa
Rain since
9am
mm
Dir  Spd
km/h
Gust
km/h
Spd
kts
Gust
kts
22/12:30pm 15.6 11.7 6.9 56 4.3 WNW 17 32 9 17 1017.5 1017.7 0.0
22/12:00pm 14.9 11.3 8.2 64 3.4 WNW 17 28 9 15 1017.9 1018.1 0.0
22/11:30am 14.9 12.1 8.6 66 3.2 WNW 13 20 7 11 1018.5 1018.7 0.0
22/11:00am 14.3 11.4 8.3 67 3.0 NW 13 24 7 13 1018.7 1018.9 0.0
22/10:30am 13.5 10.5 7.7 68 2.9 W 13 22 7 12 1018.9 1019.1 0.0
22/10:00am 13.2 11.4 9.3 77 2.0 NW 9 13 5 7 1018.7 1018.9 0.0
22/09:30am 11.1 9.1 8.5 84 1.3 N 9 9 5 5 1018.6 1018.8 0.0
22/09:00am 10.6 8.9 8.5 87 1.0 N 7 9 4 5 1018.3 1018.5 21.8
22/08:30am 9.8 7.8 8.7 93 0.5 NW 9 9 5 5 1018.0 1018.2 21.8
22/08:00am 9.4 7.4 8.5 94 0.4 WNW 9 11 5 6 1017.8 1018.0 21.8
22/07:30am 8.7 6.9 7.8 94 0.4 W 7 11 4 6 1017.5 1017.7 21.8
22/07:00am 8.5 7.6 7.6 94 0.4 WNW 2 7 1 4 1017.2 1017.4 21.8
22/06:30am 8.5 6.2 7.6 94 0.4 WSW 9 11 5 6 1016.7 1016.9 21.8
22/06:00am 8.6 7.7 7.7 94 0.4 W 2 9 1 5 1016.4 1016.6 21.8
22/05:30am 8.4 5.3 7.3 93 0.5 SW 13 17 7 9 1016.2 1016.4 21.8
22/05:00am 8.3 5.2 7.2 93 0.5 SW 13 19 7 10 1016.2 1016.4 21.8
22/04:30am 8.6 5.5 7.4 92 0.6 SW 13 22 7 12 1016.1 1016.3 21.8
22/04:00am 8.8 5.8 7.9 94 0.4 SW 13 26 7 14 1016.0 1016.2 21.8
22/03:30am 8.8 6.2 7.9 94 0.4 W 11 17 6 9 1016.0 1016.2 21.8
22/03:00am 8.6 5.9 7.5 93 0.5 W 11 17 6 9 1016.0 1016.2 21.8
22/02:30am 9.0 6.4 7.9 93 0.5 WSW 11 17 6 9 1015.9 1016.1 21.8
22/02:00am 8.9 6.7 7.8 93 0.5 W 9 15 5 8 1016.0 1016.2 21.8
22/01:30am 8.6 5.6 7.5 93 0.5 WSW 13 22 7 12 1015.9 1016.1 21.8
22/01:00am 8.4 5.3 7.3 93 0.5 W 13 24 7 13 1015.9 1016.1 21.8
22/12:30am 8.4 5.3 7.2 92 0.6 W 13 19 7 10 1016.0 1016.2 21.8
22/12:00am 8.9 5.4 7.0 88 0.9 W 15 20 8 11 1016.0 1016.2 21.8
 
Date/Time
WST
Temp
°C
App
Temp
°C
Dew
Point
°C
Rel
Hum
%
Delta-T
°C
Wind Press
QNH
hPa
Press
MSL
hPa
Rain since
9am
mm
Dir  Spd
km/h
Gust
km/h
Spd
kts
Gust
kts
21/11:30pm 10.5 7.2 6.6 77 1.9 WSW 13 22 7 12 1015.9 1016.1 21.8
21/11:00pm 10.8 7.7 7.3 79 1.7 WSW 13 20 7 11 1015.9 1016.1 21.8
21/10:30pm 11.1 7.7 7.8 80 1.6 WSW 15 20 8 11 1015.9 1016.1 21.8
21/10:00pm 11.3 8.0 8.0 80 1.6 WSW 15 22 8 12 1015.8 1015.9 21.8
21/09:30pm 11.7 8.6 8.7 82 1.5 WSW 15 26 8 14 1015.4 1015.6 21.8
21/09:00pm 12.0 8.7 9.4 84 1.3 WSW 17 28 9 15 1015.1 1015.3 21.8
21/08:30pm 12.3 9.6 10.2 87 1.1 SW 15 32 8 17 1014.8 1015.0 21.8
21/08:00pm 12.7 9.9 11.4 92 0.7 WSW 17 28 9 15 1014.5 1014.7 21.8
21/07:30pm 12.9 9.7 12.0 94 0.5 WSW 20 32 11 17 1014.3 1014.5 21.6
21/07:00pm 13.0 9.1 12.1 94 0.5 W 24 44 13 24 1013.8 1014.0 19.2
21/06:30pm 12.8 9.5 11.7 93 0.6 WNW 20 41 11 22 1013.4 1013.6 16.0
21/06:00pm 13.0 10.3 11.6 91 0.8 WNW 17 32 9 17 1013.0 1013.2 4.4
21/05:30pm 13.5 10.1 10.5 82 1.6 WNW 19 30 10 16 1012.7 1012.8 1.8
21/05:00pm 14.8 9.8 9.4 70 2.8 WNW 26 52 14 28 1012.4 1012.5 1.0
21/04:41pm 15.0 10.4 9.8 71 2.7 NW 24 50 13 27 1012.4 1012.5 1.0
21/04:30pm 15.0 10.1 10.0 72 2.6 NW 26 44 14 24 1012.3 1012.4 1.0
21/04:00pm 14.6 9.4 11.6 82 1.6 WNW 30 50 16 27 1012.2 1012.3 1.0
21/03:30pm 15.4 9.8 10.2 71 2.8 NW 30 59 16 32 1011.5 1011.7 0.2
21/03:17pm 15.7 9.7 10.2 70 2.9 NW 32 54 17 29 1011.5 1011.7 0.2
21/03:15pm 15.7 9.7 10.0 69 3.0 NW 32 52 17 28 1011.5 1011.7 0.2
21/03:01pm 15.6 9.4 9.9 69 3.0 WNW 33 67 18 36 1011.5 1011.7 0.2
21/03:00pm 15.6 9.1 10.4 71 2.8 WNW 35 67 19 36 1011.6 1011.8 0.2
21/02:30pm 15.7 9.6 9.8 68 3.1 NW 32 61 17 33 1011.8 1011.9 0.2
21/02:00pm 16.0 9.6 8.7 62 3.8 NW 32 61 17 33 1011.8 1011.9 0.2
21/01:30pm 16.8 10.6 9.5 62 3.9 NW 32 59 17 32 1012.0 1012.1 0.2
21/01:00pm 15.7 9.4 9.1 65 3.4 NW 32 59 17 32 1012.1 1012.2 0.2
21/12:30pm 15.9 10.3 8.6 62 3.8 NW 28 54 15 29 1012.4 1012.5 0.2
21/12:00pm 15.9 9.5 8.6 62 3.8 WNW 32 56 17 30 1012.8 1013.0 0.2
21/11:30am 15.4 10.3 10.6 73 2.6 NW 28 54 15 29 1013.2 1013.4 0.2
21/11:06am 14.4 9.4 10.8 79 1.9 WNW 28 57 15 31 1013.4 1013.6 0.2
21/11:00am 14.4 9.6 10.4 77 2.1 WNW 26 57 14 31 1013.4 1013.6 0.2
21/10:30am 15.1 9.9 10.1 72 2.6 NNW 28 52 15 28 1013.3 1013.5 0.0
21/10:00am 14.8 10.3 10.0 73 2.5 NNW 24 44 13 24 1013.4 1013.6 0.0
21/09:30am 14.7 10.6 8.6 67 3.1 NNW 20 37 11 20 1013.3 1013.5 0.0
21/09:00am 14.2 10.5 9.4 73 2.5 NW 19 32 10 17 1012.9 1013.1 8.0
21/08:30am 13.2 9.7 8.9 75 2.2 NNW 17 28 9 15 1012.9 1013.1 8.0
21/08:00am 12.2 8.5 8.1 76 2.0 NW 17 28 9 15 1012.7 1012.8 8.0
21/07:30am 11.9 8.5 9.3 84 1.3 NW 17 30 9 16 1012.6 1012.7 8.0
21/07:00am 12.2 9.0 10.1 87 1.1 WNW 17 28 9 15 1012.6 1012.7 8.0
21/06:30am 12.3 9.4 9.7 84 1.3 NW 15 28 8 15 1012.3 1012.4 7.4
21/06:00am 12.5 9.4 9.0 79 1.8 WNW 15 28 8 15 1012.1 1012.2 7.2
21/05:30am 12.8 9.6 8.3 74 2.3 WNW 15 28 8 15 1011.6 1011.8 7.2
21/05:00am 12.6 8.9 7.9 73 2.3 NW 17 24 9 13 1011.6 1011.8 7.2
21/04:30am 12.2 8.5 7.9 75 2.1 WNW 17 26 9 14 1011.8 1011.9 7.2
21/04:00am 11.9 8.7 8.4 79 1.8 W 15 26 8 14 1011.8 1011.9 7.2
21/03:30am 11.9 8.4 8.7 81 1.6 WNW 17 32 9 17 1011.6 1011.8 7.2
21/03:00am 11.4 7.8 8.4 82 1.5 WNW 17 28 9 15 1011.8 1011.9 7.2
21/02:30am 11.0 7.7 9.4 90 0.8 WNW 17 26 9 14 1012.1 1012.2 7.2
21/02:00am 10.7 7.8 9.6 93 0.6 WNW 15 24 8 13 1012.3 1012.4 7.2
21/01:30am 10.8 8.3 9.7 93 0.6 WNW 13 20 7 11 1012.4 1012.5 7.2
21/01:00am 10.8 8.3 9.7 93 0.6 WNW 13 20 7 11 1012.5 1012.6 7.2
21/12:30am 10.5 8.4 9.6 94 0.5 WNW 11 19 6 10 1012.7 1012.8 7.2
21/12:00am 10.3 7.7 9.2 93 0.6 W 13 19 7 10 1012.7 1012.8 7.2
 
Date/Time
WST
Temp
°C
App
Temp
°C
Dew
Point
°C
Rel
Hum
%
Delta-T
°C
Wind Press
QNH
hPa
Press
MSL
hPa
Rain since
9am
mm
Dir  Spd
km/h
Gust
km/h
Spd
kts
Gust
kts
20/11:30pm 10.9 8.4 9.8 93 0.6 WNW 13 22 7 12 1012.9 1013.1 7.2
20/11:00pm 10.5 7.9 9.4 93 0.6 WNW 13 20 7 11 1012.8 1013.0 7.0
20/10:30pm 10.5 8.3 9.3 92 0.6 W 11 19 6 10 1012.8 1013.0 7.0
20/10:00pm 11.3 9.2 9.6 89 0.9 WSW 11 17 6 9 1012.8 1013.0 7.0
20/09:30pm 11.5 9.1 10.1 91 0.7 W 13 20 7 11 1012.7 1012.8 7.0
20/09:00pm 11.6 9.6 10.3 92 0.7 W 11 17 6 9 1012.5 1012.6 7.0
20/08:30pm 11.7 9.8 10.6 93 0.6 WNW 11 17 6 9 1012.5 1012.6 7.0
20/08:00pm 11.7 9.4 10.6 93 0.6 NW 13 22 7 12 1012.4 1012.5 6.8
20/07:30pm 11.7 10.1 10.3 91 0.7 WNW 9 15 5 8 1012.0 1012.1 6.2
20/07:00pm 11.6 8.9 10.2 91 0.7 W 15 26 8 14 1012.2 1012.3 6.2
20/06:30pm 11.8 9.1 10.5 92 0.7 W 15 30 8 16 1011.5 1011.7 6.2
20/06:00pm 12.0 9.3 10.4 90 0.8 W 15 30 8 16 1011.1 1011.3 5.6
20/05:30pm 12.3 8.7 10.5 89 0.9 W 20 35 11 19 1010.8 1011.0 5.6
20/05:00pm 12.5 8.9 10.7 89 1.0 W 20 35 11 19 1010.4 1010.6 5.4
20/04:30pm 12.5 9.1 10.7 89 0.9 WNW 19 33 10 18 1010.2 1010.4 5.4
20/04:00pm 12.6 9.0 10.5 87 1.1 W 20 50 11 27 1010.0 1010.2 5.4
20/03:30pm 12.8 8.1 10.7 87 1.1 W 26 52 14 28 1009.5 1009.6 5.4
20/03:00pm 13.5 8.5 11.0 85 1.3 W 28 54 15 29 1009.3 1009.4 5.2
20/02:53pm 13.4 8.3 10.6 83 1.5 W 28 54 15 29 1009.4 1009.5 5.2
20/02:30pm 13.5 9.2 10.7 83 1.5 WNW 24 44 13 24 1009.0 1009.1 5.2
20/02:00pm 13.6 8.5 10.6 82 1.6 WNW 28 50 15 27 1009.0 1009.1 5.2
20/01:35pm 13.0 8.0 11.1 88 1.0 W 28 48 15 26 1008.9 1009.0 5.2
20/01:30pm 12.7 8.4 10.6 87 1.1 W 24 52 13 28 1008.9 1009.0 5.2
20/01:18pm 12.9 7.8 10.6 86 1.2 W 28 63 15 34 1009.1 1009.2 5.2
20/01:00pm 13.6 9.1 11.5 87 1.1 W 26 43 14 23 1008.9 1009.0 4.0
20/12:30pm 12.6 8.4 11.0 90 0.8 WNW 24 41 13 22 1009.4 1009.5 3.8
20/12:16pm 12.5 8.6 10.7 89 0.9 NW 22 48 12 26 1009.6 1009.8 3.4
20/12:00pm 13.0 8.8 11.1 88 1.0 WNW 24 46 13 25 1009.6 1009.8 2.6
20/11:30am 12.3 7.4 10.0 86 1.2 WNW 26 43 14 23 1009.9 1010.1 2.4
20/11:00am 13.4 9.6 11.3 87 1.1 WNW 22 41 12 22 1009.9 1010.1 2.2
20/10:30am 12.6 8.9 10.3 86 1.2 WNW 20 33 11 18 1010.1 1010.3 1.8
20/10:00am 12.3 9.3 10.5 89 0.9 WNW 17 30 9 16 1010.0 1010.2 1.8
20/09:30am 11.3 8.4 9.7 90 0.8 WNW 15 26 8 14 1010.1 1010.3 1.8
20/09:00am 11.3 8.9 10.0 92 0.7 WNW 13 19 7 10 1010.0 1010.2 23.6
20/08:30am 10.7 7.4 9.5 92 0.6 WNW 17 33 9 18 1009.9 1010.1 23.4
20/08:00am 10.2 7.5 9.0 92 0.6 W 13 19 7 10 1009.5 1009.6 22.0
20/07:30am 9.9 6.8 8.7 92 0.6 WNW 15 24 8 13 1009.4 1009.5 22.0
20/07:00am 10.2 7.1 9.0 92 0.6 WNW 15 26 8 14 1009.4 1009.5 22.0
20/06:30am 10.3 7.6 9.1 92 0.6 WSW 13 22 7 12 1009.1 1009.2 20.6
20/06:00am 10.5 7.9 9.3 92 0.6 W 13 22 7 12 1008.9 1009.0 20.6
20/05:30am 10.7 7.3 9.0 89 0.9 WSW 17 33 9 18 1008.6 1008.7 20.0
20/05:00am 10.8 7.5 9.6 92 0.6 WNW 17 26 9 14 1007.9 1008.0 19.6
20/04:30am 10.4 6.6 9.2 92 0.6 NW 19 33 10 18 1008.0 1008.1 19.6
20/04:00am 10.3 7.3 9.1 92 0.6 NW 15 30 8 16 1008.1 1008.2 19.4
20/03:30am 10.6 6.6 9.2 91 0.7 WNW 20 37 11 20 1008.4 1008.5 18.0
20/03:00am 11.0 8.6 9.9 93 0.6 NW 13 24 7 13 1007.9 1008.0 14.0
20/02:30am 10.7 7.4 9.5 92 0.6 WNW 17 33 9 18 1008.3 1008.4 13.8
20/02:00am 10.5 6.5 9.1 91 0.7 W 20 41 11 22 1008.3 1008.4 13.8
20/01:48am 11.0 7.2 9.8 92 0.6 NW 20 57 11 31 1008.3 1008.4 11.6
20/01:30am 10.5 7.5 9.1 91 0.7 WNW 15 26 8 14 1008.2 1008.3 9.2
20/01:00am 10.0 4.8 8.8 92 0.6 W 26 44 14 24 1008.9 1009.0 8.4
20/12:30am 11.6 6.9 9.3 86 1.2 NW 24 39 13 21 1008.5 1008.6 5.4
20/12:00am 11.9 7.6 9.3 84 1.3 N 22 46 12 25 1008.7 1008.8 5.2
 
Date/Time
WST
Temp
°C
App
Temp
°C
Dew
Point
°C
Rel
Hum
%
Delta-T
°C
Wind Press
QNH
hPa
Press
MSL
hPa
Rain since
9am
mm
Dir  Spd
km/h
Gust
km/h
Spd
kts
Gust
kts
19/11:30pm 11.8 7.5 9.5 86 1.2 N 22 35 12 19 1009.2 1009.3 5.2
19/11:00pm 11.8 7.9 9.5 86 1.2 N 20 33 11 18 1009.8 1010.0 5.0
19/10:30pm 11.8 7.9 9.5 86 1.2 NNW 20 33 11 18 1010.0 1010.2 4.8
19/10:00pm 11.5 7.3 9.6 88 1.0 N 22 39 12 21 1010.2 1010.4 4.8
19/09:30pm 11.5 7.2 9.4 87 1.1 N 22 41 12 22 1010.7 1010.9 4.8
19/09:00pm 11.4 7.6 9.8 90 0.8 NW 20 35 11 19 1011.0 1011.2 4.4
19/08:30pm 11.2 6.1 9.1 87 1.1 WNW 26 48 14 26 1011.6 1011.8 3.2
19/08:22pm 11.7 6.2 9.1 84 1.3 W 28 57 15 31 1011.8 1011.9 2.6
19/08:00pm 11.8 7.0 9.0 83 1.4 WNW 24 39 13 21 1011.1 1011.3 2.4
19/07:34pm 12.2 7.0 8.9 80 1.7 NNW 26 48 14 26 1010.8 1011.0 2.0
19/07:30pm 12.0 6.8 8.8 81 1.6 N 26 44 14 24 1010.5 1010.7 2.0
19/07:01pm 12.5 7.2 8.6 77 2.0 NW 26 56 14 30 1011.1 1011.3 1.6
19/07:00pm 12.5 7.2 8.6 77 2.0 NW 26 56 14 30 1011.0 1011.2 1.6
19/06:57pm 12.6 7.8 8.7 77 2.0 NNW 24 46 13 25 1010.9 1011.1 1.6
19/06:30pm 12.3 7.8 8.6 78 1.9 NNW 22 39 12 21 1011.1 1011.3 1.6
19/06:00pm 11.9 7.6 9.3 84 1.3 N 22 37 12 20 1011.1 1011.3 1.6
19/05:30pm 12.2 8.6 9.8 85 1.2 N 19 32 10 17 1011.1 1011.3 1.4
19/05:00pm 12.5 8.6 9.5 82 1.5 N 20 35 11 19 1011.1 1011.3 0.8
19/04:30pm 12.3 7.0 9.7 84 1.3 NNE 28 48 15 26 1011.3 1011.5 0.8
19/04:00pm 13.0 8.9 10.0 82 1.6 N 22 39 12 21 1011.5 1011.7 0.6
19/03:30pm 12.6 8.9 10.3 86 1.2 N 20 37 11 20 1011.4 1011.6 0.6
19/03:00pm 12.5 7.9 9.5 82 1.5 N 24 52 13 28 1011.9 1012.0 0.6
19/02:31pm 14.0 8.5 9.0 72 2.6 NNW 28 50 15 27 1011.5 1011.7 0.6
19/02:30pm 14.0 8.4 8.8 71 2.7 NNW 28 50 15 27 1011.5 1011.7 0.6
19/02:00pm 14.9 8.7 7.7 62 3.6 NNW 30 52 16 28 1011.5 1011.7 0.2
19/01:31pm 14.4 9.0 9.4 72 2.6 NW 28 46 15 25 1012.1 1012.2 0.2
19/01:30pm 14.3 9.1 8.9 70 2.8 NW 26 46 14 25 1012.1 1012.2 0.2
19/01:00pm 14.1 8.2 10.3 78 2.0 NNW 32 54 17 29 1012.4 1012.5 0.2
19/12:51pm 14.0 8.6 9.6 75 2.3 WNW 28 54 15 29 1012.7 1012.8 0.2

Other Formats:

Comma delimited format used in spreadsheet applications
http://www.bom.gov.au/fwo/IDW60801/IDW60801.94620.axf

JavaScript Object Notation format (JSON) in row-major order
http://www.bom.gov.au/fwo/IDW60801/IDW60801.94620.json